Ayden, NC

7:16 PM EDT on September 19, 2014 (GMT -0400)
Sunrise Park | Change Station
CLOSE
Current Station
Personal Weather Station
Location: Ayden, NC
Elevation: 49 ft
Nearby Weather Stations

Elev 49 ft 35.47 °N, 77.41 °W | Updated 5 minutes ago

Clear
Clear
72.7 °F
Feels Like 76 °F
N
4.2
Wind Variable Wind from NE

Today
High -- | Low -- °F
--% Chance of Precip.
Yesterday
High -- | Low -- °F
Precip. -- in
6:55 AM 7:10 PM
Waning Crescent, 16% visible
Pressure 30.21 in
Visibility 10.0 miles
Clouds Clear
Heat Index 76 °F
Dew Point 60 °F
Humidity 65%
Rainfall 0.00 in
Snow Depth Not available.
UV 0 out of 12
Pollen 5.90 out of 12
Air Quality Not available.
Flu Activity Not available.
METAR KPGV 192250Z AUTO 06008KT 10SM CLR 23/15 A3021 RMK AO2

More Conditions Fewer Conditions

Pressure 30.21 in
Visibility 10.0 miles
Clouds Clear
Heat Index 76 °F
Dew Point 60 °F
Humidity 65%
Rainfall 0.00 in
Snow Depth Not available.
UV 0 out of 12
Pollen 5.90 out of 12
Air Quality Not available.
Flu Activity Not available.
METAR KPGV 192250Z AUTO 06008KT 10SM CLR 23/15 A3021 RMK AO2

More Conditions Fewer Conditions

10-Day Weather Forecast

Almanac

Astronomy

Sep. 19, 2014 Rise Set
Actual Time 6:55 AM EDT 7:10 PM EDT
Civil Twilight 6:29 AM EDT 7:36 PM EDT
Nautical Twilight 6:00 AM EDT 8:06 PM EDT
Astronomical Twilight 5:29 AM EDT 8:36 PM EDT
Moon 2:45 AM EDT 4:32 PM EDT
Length of Visible Light 13h 06m
Length of Day
12h 15m
Tomorrow will be 2m 13s shorter.
Waning Crescent, 16% of the Moon is Illuminated
Today
Waning Crescent
Sep 24
New
Oct 1
First Quarter
Oct 8
Full
Oct 15
Last Quarter

Today's Extremes

State Highs State Lows

Community

WunderPhotos

Upload Photos

1,754,724 photos uploaded!

Nearby

Snow Depth

Station Depth Elevation
No new snow has been reported.

Earthquake Activity

City Distance Mag. Time & Date
No recent earthquake activity has been reported nearby.
Minimum magnitude displayed is 2.5.

Coastal Water Temperatures

Place Temperature
No Stations Reporting

Nearby Weather Stations